Time;durP1;ratioP1;P1;durP2;ratioP2;P2;SDS_P1;SDS_P2;PMS_P1;PMS_P2;Temp;Humidity;BMP_temperature;BMP_pressure;BME280_temperature;BME280_humidity;BME280_pressure;Samples;Min_cycle;Max_cycle;Signal;HPM_P1;HPM_P2
2023/06/27 00:01:52;;;;;;;16.08;3.22;;;;;;;15.85;89.43;96250.59;5093256;28;20050;-62
2023/06/27 00:04:23;;;;;;;11.07;3.05;;;;;;;15.85;89.01;96257.66;5093257;28;20056;-63
2023/06/27 00:06:50;;;;;;;6.50;3.22;;;;;;;15.86;88.19;96257.56;5093250;28;20414;-61
2023/06/27 00:09:17;;;;;;;12.75;4.00;;;;;;;15.84;88.49;96250.69;5093177;28;20052;-63
2023/06/27 00:11:45;;;;;;;10.73;3.22;;;;;;;15.83;88.91;96247.19;5093192;28;20497;-62
2023/06/27 00:14:13;;;;;;;6.30;3.30;;;;;;;15.84;89.25;96248.91;5093323;28;20048;-62
2023/06/27 00:16:41;;;;;;;8.35;3.35;;;;;;;15.87;88.67;96243.41;5093160;28;20079;-63
2023/06/27 00:19:08;;;;;;;11.73;3.80;;;;;;;15.85;88.39;96245.31;5093232;28;20065;-61
2023/06/27 00:21:36;;;;;;;8.57;3.30;;;;;;;15.86;88.40;96244.38;5093058;28;20045;-62
2023/06/27 00:24:04;;;;;;;10.82;4.13;;;;;;;15.88;87.69;96245.13;5093028;28;20176;-63
2023/06/27 00:26:33;;;;;;;9.00;3.35;;;;;;;15.89;86.60;96246.81;5093182;28;20405;-62
2023/06/27 00:29:02;;;;;;;8.48;3.00;;;;;;;15.82;86.69;96234.97;5093064;28;20414;-61
2023/06/27 00:31:29;;;;;;;12.93;2.90;;;;;;;15.78;87.03;96244.03;5093163;28;20481;-63
2023/06/27 00:33:56;;;;;;;9.45;2.92;;;;;;;15.78;87.20;96238.75;5093156;28;20044;-63
2023/06/27 00:36:23;;;;;;;11.98;3.47;;;;;;;15.70;87.53;96238.38;5093039;28;20043;-61
2023/06/27 00:38:50;;;;;;;11.50;2.90;;;;;;;15.70;87.33;96239.25;5096091;28;20506;-62
2023/06/27 00:41:17;;;;;;;10.45;2.80;;;;;;;15.66;87.29;96235.94;5097157;28;20044;-62
2023/06/27 00:43:44;;;;;;;13.80;4.28;;;;;;;15.67;87.13;96244.69;5096915;28;20166;-63
2023/06/27 00:46:26;;;;;;;7.13;2.95;;;;;;;15.65;86.76;96246.56;5096844;28;20507;-63
2023/06/27 00:48:53;;;;;;;9.00;3.08;;;;;;;15.62;85.76;96241.53;5096899;28;20048;-63
2023/06/27 00:51:20;;;;;;;12.82;3.22;;;;;;;15.58;86.34;96240.00;5096903;28;20067;-63
2023/06/27 00:53:48;;;;;;;8.70;3.28;;;;;;;15.52;87.15;96243.88;5096752;28;20044;-62
2023/06/27 00:56:15;;;;;;;9.48;3.35;;;;;;;15.48;87.61;96245.03;5096775;28;20048;-62
2023/06/27 00:58:42;;;;;;;6.97;3.22;;;;;;;15.46;87.24;96239.84;5096741;28;20048;-62
2023/06/27 01:01:09;;;;;;;5.75;3.47;;;;;;;15.44;87.42;96251.44;5097025;28;20048;-63
2023/06/27 01:03:38;;;;;;;8.43;3.08;;;;;;;15.47;87.27;96248.59;5096720;28;20082;-63
2023/06/27 01:06:14;;;;;;;7.72;2.70;;;;;;;15.43;86.85;96245.31;5096960;28;20082;-63
2023/06/27 01:08:45;;;;;;;3.85;2.33;;;;;;;15.37;87.05;96246.53;5096464;28;20128;-62
2023/06/27 01:11:19;;;;;;;6.68;2.80;;;;;;;15.34;86.73;96246.72;5096747;28;20048;-63
2023/06/27 01:13:50;;;;;;;11.15;3.20;;;;;;;15.37;87.04;96246.53;5096658;28;20116;-61
2023/06/27 01:16:20;;;;;;;5.63;2.80;;;;;;;15.38;86.78;96250.84;5096395;28;20064;-62
2023/06/27 01:18:49;;;;;;;11.02;2.88;;;;;;;15.37;86.72;96246.53;5096308;28;20044;-61
2023/06/27 01:21:18;;;;;;;6.63;3.17;;;;;;;15.35;87.36;96239.69;5096311;28;20051;-62
2023/06/27 01:23:52;;;;;;;4.85;2.95;;;;;;;15.34;87.41;96240.59;5096288;28;20048;-62
2023/06/27 01:26:19;;;;;;;7.90;2.83;;;;;;;15.34;87.68;96248.50;5096242;28;20477;-62
2023/06/27 01:28:46;;;;;;;8.15;3.10;;;;;;;15.35;87.77;96237.88;5096275;28;20131;-63
2023/06/27 01:31:22;;;;;;;5.28;3.13;;;;;;;15.36;86.86;96236.09;5096064;28;20044;-62
2023/06/27 01:33:55;;;;;;;12.15;3.42;;;;;;;15.32;86.84;96239.88;5095921;28;20051;-62
2023/06/27 01:36:27;;;;;;;7.32;3.45;;;;;;;15.31;86.57;96240.78;5095926;28;20055;-63
2023/06/27 01:39:02;;;;;;;4.30;2.92;;;;;;;15.28;86.46;96242.69;5096219;28;20060;-63
2023/06/27 01:41:32;;;;;;;7.32;2.88;;;;;;;15.27;86.51;96238.34;5095842;28;20044;-63
2023/06/27 01:44:02;;;;;;;12.80;3.25;;;;;;;15.24;86.60;96243.81;5095649;28;20101;-63
2023/06/27 01:46:31;;;;;;;6.95;3.03;;;;;;;15.24;86.63;96237.69;5095822;28;20051;-61
2023/06/27 01:48:59;;;;;;;11.77;3.58;;;;;;;15.20;86.57;96237.03;5094567;28;20055;-61
2023/06/27 01:51:26;;;;;;;10.48;3.17;;;;;;;15.16;86.45;96238.16;5095597;28;20063;-63
2023/06/27 01:53:53;;;;;;;10.18;3.10;;;;;;;15.13;86.23;96240.97;5095638;28;20097;-62
2023/06/27 01:56:23;;;;;;;10.00;2.50;;;;;;;15.11;86.17;96241.06;5095768;28;20465;-63
2023/06/27 01:58:50;;;;;;;7.75;3.17;;;;;;;15.12;86.59;96244.56;5095699;28;20402;-62
2023/06/27 02:01:17;;;;;;;8.35;3.58;;;;;;;15.14;87.75;96240.91;5095438;28;20079;-61
2023/06/27 02:03:45;;;;;;;6.47;3.13;;;;;;;15.17;87.49;96242.47;5095294;28;20096;-63
2023/06/27 02:06:12;;;;;;;10.20;3.38;;;;;;;15.20;87.48;96234.41;5095371;28;20052;-62
2023/06/27 02:08:39;;;;;;;9.65;2.88;;;;;;;15.19;87.04;96235.34;5095401;28;20073;-62
2023/06/27 02:11:06;;;;;;;8.23;3.28;;;;;;;15.19;87.76;96239.75;5095344;28;20044;-63
2023/06/27 02:13:37;;;;;;;7.03;2.70;;;;;;;15.18;87.11;96238.06;5095246;28;20084;-63
2023/06/27 02:16:05;;;;;;;6.15;3.65;;;;;;;15.12;88.62;96234.88;5095183;28;20048;-61
2023/06/27 02:18:32;;;;;;;9.20;3.75;;;;;;;15.09;89.25;96235.06;5095200;28;20052;-62
2023/06/27 02:20:59;;;;;;;5.25;3.85;;;;;;;15.07;89.63;96242.22;5095342;28;20040;-61
2023/06/27 02:23:26;;;;;;;8.43;3.60;;;;;;;15.06;89.77;96237.91;5094969;28;20147;-63
2023/06/27 02:25:54;;;;;;;3.50;2.78;;;;;;;15.05;89.91;96238.81;5095338;28;20055;-62
2023/06/27 02:28:21;;;;;;;6.75;3.42;;;;;;;15.01;89.55;96234.69;5094959;28;20405;-63
2023/06/27 02:30:50;;;;;;;7.85;3.45;;;;;;;14.98;89.11;96235.72;5094963;28;20123;-62
2023/06/27 02:33:17;;;;;;;6.43;3.38;;;;;;;14.96;89.52;96229.69;5094893;28;20047;-61
2023/06/27 02:35:45;;;;;;;10.32;3.33;;;;;;;14.98;89.69;96237.50;5094781;28;20087;-62
2023/06/27 02:38:12;;;;;;;10.10;3.58;;;;;;;15.03;89.48;96235.44;5094714;28;20040;-62
2023/06/27 02:40:39;;;;;;;7.57;3.35;;;;;;;15.08;89.12;96243.91;5094671;28;20044;-63
2023/06/27 02:43:07;;;;;;;9.05;3.60;;;;;;;15.08;88.92;96243.06;5094747;28;20052;-61
2023/06/27 02:45:35;;;;;;;6.82;2.90;;;;;;;15.13;89.22;96247.09;5094368;28;20051;-61
2023/06/27 02:48:04;;;;;;;6.68;3.17;;;;;;;15.16;88.88;96248.69;5094516;28;20101;-63
2023/06/27 02:50:32;;;;;;;12.43;3.53;;;;;;;15.16;89.00;96246.06;5094487;28;20134;-62
2023/06/27 02:52:59;;;;;;;5.57;3.10;;;;;;;15.20;87.77;96249.38;5094677;28;20481;-62
2023/06/27 02:55:26;;;;;;;5.53;3.13;;;;;;;15.21;87.44;96251.91;5094545;28;20083;-63
2023/06/27 02:57:53;;;;;;;6.53;3.17;;;;;;;15.19;87.05;96253.78;5094318;28;20379;-63
2023/06/27 03:00:21;;;;;;;12.32;4.00;;;;;;;15.16;86.61;96253.97;5094231;28;20048;-63
2023/06/27 03:02:48;;;;;;;3.10;2.80;;;;;;;15.15;86.78;96250.47;5094292;28;20473;-61
2023/06/27 03:05:17;;;;;;;5.78;3.25;;;;;;;15.13;87.43;96255.00;5094256;28;20049;-62
2023/06/27 03:07:44;;;;;;;7.47;3.00;;;;;;;15.13;87.60;96255.00;5094169;28;20044;-63
2023/06/27 03:10:12;;;;;;;8.23;3.30;;;;;;;15.16;87.57;96252.19;5094255;28;20044;-63
2023/06/27 03:12:39;;;;;;;7.40;3.08;;;;;;;15.16;87.25;96251.34;5094327;28;20044;-61
2023/06/27 03:15:07;;;;;;;14.10;3.03;;;;;;;15.13;87.44;96252.38;5094104;28;20048;-61
2023/06/27 03:17:34;;;;;;;12.95;3.50;;;;;;;15.18;87.70;96259.16;5093987;28;20506;-61
2023/06/27 03:20:03;;;;;;;6.07;3.25;;;;;;;15.24;88.04;96256.13;5094155;28;20051;-62
2023/06/27 03:22:31;;;;;;;4.57;3.10;;;;;;;15.26;87.03;96255.09;5093990;28;20052;-62
2023/06/27 03:24:59;;;;;;;4.28;3.10;;;;;;;15.31;86.98;96254.81;5093848;28;20075;-63
2023/06/27 03:27:26;;;;;;;3.88;3.35;;;;;;;15.31;87.21;96261.88;5093829;28;20108;-63
2023/06/27 03:29:53;;;;;;;3.03;2.80;;;;;;;15.33;87.86;96247.69;5093787;28;20050;-63
2023/06/27 03:32:21;;;;;;;7.05;2.70;;;;;;;15.47;87.93;96262.63;5093778;28;20091;-63
2023/06/27 03:34:48;;;;;;;4.53;3.40;;;;;;;15.70;87.47;96262.09;5093730;28;20044;-62
2023/06/27 03:37:15;;;;;;;9.18;2.83;;;;;;;16.00;87.98;96263.78;5093678;28;20040;-62
2023/06/27 03:39:44;;;;;;;9.32;2.60;;;;;;;16.31;85.08;96260.94;5093904;28;20048;-63
2023/06/27 03:42:11;;;;;;;5.63;2.80;;;;;;;16.64;83.76;96264.91;5093470;28;20047;-63
2023/06/27 03:44:38;;;;;;;4.10;2.25;;;;;;;17.01;82.39;96264.22;5093371;28;20079;-63
2023/06/27 03:47:06;;;;;;;5.40;2.40;;;;;;;17.44;80.65;96268.34;5093565;28;20044;-62
2023/06/27 03:49:34;;;;;;;4.70;2.47;;;;;;;17.87;78.81;96266.22;5093481;28;20045;-62
2023/06/27 03:52:03;;;;;;;4.25;2.40;;;;;;;18.28;77.07;96272.16;5093488;28;20048;-63
2023/06/27 03:54:30;;;;;;;4.78;2.17;;;;;;;18.69;75.58;96256.75;5093583;28;20109;-63
2023/06/27 03:57:00;;;;;;;8.50;2.97;;;;;;;19.12;73.68;96275.69;5093454;28;20101;-63
2023/06/27 03:59:27;;;;;;;6.93;2.72;;;;;;;19.50;71.50;96268.38;5093356;28;20071;-63
2023/06/27 04:01:54;;;;;;;3.97;2.40;;;;;;;19.80;69.94;96265.09;5093296;28;20040;-64
2023/06/27 04:04:21;;;;;;;4.00;2.10;;;;;;;20.10;69.62;96275.22;5093242;28;20048;-63
2023/06/27 04:06:48;;;;;;;5.20;2.22;;;;;;;20.44;68.46;96273.25;5093337;28;20085;-63
2023/06/27 04:09:17;;;;;;;4.97;2.05;;;;;;;20.80;66.82;96265.00;5093303;28;20128;-63
2023/06/27 04:11:44;;;;;;;3.35;1.73;;;;;;;21.16;65.51;96283.31;5092810;28;20397;-62
2023/06/27 04:14:17;;;;;;;5.95;2.20;;;;;;;21.48;64.58;96281.50;5093155;28;20124;-63
2023/06/27 04:16:44;;;;;;;5.97;2.20;;;;;;;21.75;63.64;96287.22;5093163;28;20044;-64
2023/06/27 04:19:12;;;;;;;9.25;2.33;;;;;;;22.09;63.01;96286.91;5093165;28;20040;-63
2023/06/27 04:21:39;;;;;;;5.82;2.15;;;;;;;22.38;61.37;96291.47;5093082;28;20130;-64
2023/06/27 04:24:07;;;;;;;4.88;2.10;;;;;;;22.66;61.18;96291.63;5093128;28;20122;-64
2023/06/27 04:26:34;;;;;;;7.30;2.20;;;;;;;22.89;60.45;96288.69;5093032;28;20401;-64
2023/06/27 04:29:02;;;;;;;6.60;2.50;;;;;;;23.12;59.90;96279.53;5092987;28;20055;-63
2023/06/27 04:31:31;;;;;;;5.38;2.03;;;;;;;23.34;59.05;96284.53;5093065;28;20401;-64
2023/06/27 04:33:59;;;;;;;6.53;2.38;;;;;;;23.65;58.29;96280.78;5093033;28;20055;-64
2023/06/27 04:36:27;;;;;;;4.32;2.15;;;;;;;23.91;56.69;96285.47;5093090;28;20063;-62
2023/06/27 04:38:54;;;;;;;2.97;2.22;;;;;;;24.18;56.19;96286.47;5093050;28;20044;-63
2023/06/27 04:41:21;;;;;;;2.88;2.58;;;;;;;24.41;54.44;96290.53;5092961;28;20466;-64
2023/06/27 04:43:48;;;;;;;4.00;2.28;;;;;;;24.68;53.96;96292.28;5092723;28;20044;-64
2023/06/27 04:46:16;;;;;;;4.72;2.30;;;;;;;24.91;55.35;96291.84;5092991;28;20052;-64
2023/06/27 04:48:44;;;;;;;5.30;2.50;;;;;;;25.05;55.60;96293.13;5092927;28;20106;-65
2023/06/27 04:51:11;;;;;;;9.85;2.25;;;;;;;25.41;55.27;96302.03;5092892;28;20062;-64
2023/06/27 04:53:40;;;;;;;9.63;2.20;;;;;;;25.64;55.01;96305.03;5092931;28;20048;-64
2023/06/27 04:56:07;;;;;;;2.83;2.33;;;;;;;25.95;55.25;96309.03;5092929;28;20051;-64
2023/06/27 04:58:35;;;;;;;7.80;1.80;;;;;;;26.19;54.39;96310.94;5092728;28;20040;-65
2023/06/27 05:01:02;;;;;;;3.08;2.08;;;;;;;26.16;54.83;96308.63;5092875;28;20382;-64
2023/06/27 05:03:30;;;;;;;2.10;1.90;;;;;;;25.90;55.59;96309.53;5092836;28;20056;-64
2023/06/27 05:05:58;;;;;;;4.45;2.00;;;;;;;25.69;56.67;96308.09;5092634;28;20047;-64
2023/06/27 05:08:26;;;;;;;5.57;2.10;;;;;;;25.59;57.90;96315.38;5092691;28;20056;-65
2023/06/27 05:10:53;;;;;;;4.93;1.80;;;;;;;25.53;58.27;96307.97;5092599;28;20446;-64
2023/06/27 05:13:20;;;;;;;3.58;1.75;;;;;;;25.58;59.33;96316.34;5092665;28;20044;-64
2023/06/27 05:15:47;;;;;;;3.92;2.20;;;;;;;25.74;59.24;96311.13;5092663;28;20048;-64
2023/06/27 05:18:32;;;;;;;3.22;2.13;;;;;;;25.99;57.27;96313.06;5092754;28;20127;-64
2023/06/27 05:21:01;;;;;;;4.22;2.20;;;;;;;26.17;58.09;96312.13;5092861;28;20055;-64
2023/06/27 05:23:30;;;;;;;7.47;2.78;;;;;;;26.38;57.00;96311.72;5093198;28;20091;-64
2023/06/27 05:25:57;;;;;;;4.65;2.47;;;;;;;26.72;56.63;96312.59;5096103;28;20052;-65
2023/06/27 05:28:24;;;;;;;5.85;2.53;;;;;;;27.08;56.49;96316.84;5096068;28;20048;-65
2023/06/27 05:30:52;;;;;;;6.20;2.83;;;;;;;27.35;54.99;96318.34;5096081;28;20123;-65
2023/06/27 05:33:19;;;;;;;7.13;2.60;;;;;;;27.62;53.80;96320.78;5096029;28;20046;-66
2023/06/27 05:35:46;;;;;;;6.75;2.45;;;;;;;27.92;53.10;96325.59;5096189;28;20040;-66
2023/06/27 05:38:15;;;;;;;5.93;3.20;;;;;;;28.11;52.11;96314.44;5096042;28;20051;-64
2023/06/27 05:40:42;;;;;;;3.03;2.70;;;;;;;28.37;50.87;96320.56;5095987;28;20040;-64
2023/06/27 05:43:09;;;;;;;4.22;2.70;;;;;;;28.52;49.48;96320.63;5095771;28;20055;-65
2023/06/27 05:45:36;;;;;;;6.90;2.67;;;;;;;28.79;49.01;96318.44;5095559;28;20079;-64
2023/06/27 05:48:04;;;;;;;7.95;2.85;;;;;;;29.12;48.03;96323.59;5095731;28;20044;-65
2023/06/27 05:50:31;;;;;;;5.30;2.88;;;;;;;29.25;47.48;96322.97;5095639;28;20055;-65
2023/06/27 05:52:58;;;;;;;3.95;2.65;;;;;;;29.30;46.23;96317.03;5095735;28;20044;-64
2023/06/27 05:55:27;;;;;;;4.43;2.42;;;;;;;29.55;47.17;96324.06;5095665;28;20043;-65
2023/06/27 05:57:54;;;;;;;8.82;2.53;;;;;;;29.64;44.46;96317.56;5095523;28;20401;-64
2023/06/27 06:00:21;;;;;;;5.15;2.58;;;;;;;29.87;44.69;96320.19;5095490;28;20047;-64
2023/06/27 06:02:49;;;;;;;7.70;2.70;;;;;;;29.98;46.01;96320.75;5095604;28;20079;-65
2023/06/27 06:05:17;;;;;;;5.38;2.70;;;;;;;30.26;45.16;96323.63;5095384;28;20406;-65
2023/06/27 06:07:45;;;;;;;4.40;2.38;;;;;;;30.44;43.45;96327.75;5095431;28;20102;-64
2023/06/27 06:10:13;;;;;;;3.30;2.65;;;;;;;30.61;43.67;96332.94;5095488;28;20444;-64
2023/06/27 06:12:43;;;;;;;4.72;2.47;;;;;;;30.75;43.71;96331.19;5095284;28;20448;-65
2023/06/27 06:15:10;;;;;;;6.15;2.55;;;;;;;31.01;43.00;96329.81;5095305;28;20379;-66
2023/06/27 06:17:37;;;;;;;5.25;2.50;;;;;;;31.21;42.63;96327.28;5095222;28;20105;-64
2023/06/27 06:20:09;;;;;;;6.53;2.70;;;;;;;31.36;42.75;96323.69;5095100;28;20044;-65
2023/06/27 06:22:37;;;;;;;3.83;2.25;;;;;;;31.43;41.94;96319.19;5095151;28;20058;-65
2023/06/27 06:25:04;;;;;;;3.53;2.28;;;;;;;31.54;41.38;96322.38;5094960;28;20089;-64
2023/06/27 06:27:32;;;;;;;10.30;2.97;;;;;;;31.61;41.76;96323.25;5095042;28;20504;-65
2023/06/27 06:30:01;;;;;;;4.55;2.78;;;;;;;31.71;40.94;96325.59;5094960;28;20044;-65
2023/06/27 06:32:28;;;;;;;2.97;2.60;;;;;;;31.78;40.20;96330.00;5095042;28;20144;-65
2023/06/27 06:34:55;;;;;;;3.47;2.42;;;;;;;31.85;40.50;96326.50;5094346;28;20047;-65
2023/06/27 06:37:23;;;;;;;5.50;2.80;;;;;;;32.02;40.78;96327.03;5094660;28;20051;-65
2023/06/27 06:39:50;;;;;;;2.63;2.30;;;;;;;32.20;39.70;96323.78;5094908;28;20101;-65
2023/06/27 06:42:17;;;;;;;4.40;2.50;;;;;;;32.38;40.54;96328.66;5094880;28;20051;-66
2023/06/27 06:44:47;;;;;;;4.47;2.70;;;;;;;32.52;40.12;96324.16;5094394;28;20147;-66
2023/06/27 06:47:16;;;;;;;9.07;3.22;;;;;;;32.57;40.63;96323.53;5094686;28;20052;-65
2023/06/27 06:49:43;;;;;;;5.10;2.67;;;;;;;32.68;40.37;96324.78;5094611;28;20405;-65
2023/06/27 06:52:10;;;;;;;3.20;2.70;;;;;;;32.75;38.42;96327.53;5094554;28;20052;-65
2023/06/27 06:54:38;;;;;;;4.80;2.60;;;;;;;32.74;37.59;96323.13;5094457;28;20221;-64
2023/06/27 06:57:08;;;;;;;7.05;2.50;;;;;;;32.76;37.99;96321.06;5094398;28;20072;-65
2023/06/27 06:59:35;;;;;;;;;;;;;;;32.86;37.93;96320.66;5094760;28;20047;-65
2023/06/27 07:02:03;;;;;;;3.85;2.90;;;;;;;32.95;37.21;96319.44;5094426;28;19966;-64
2023/06/27 07:04:31;;;;;;;3.35;2.38;;;;;;;33.04;37.15;96314.66;5094322;28;20054;-65
2023/06/27 07:06:59;;;;;;;5.50;2.63;;;;;;;33.06;37.06;96322.59;5094479;28;20052;-65
2023/06/27 07:09:28;;;;;;;2.60;2.38;;;;;;;33.20;36.45;96324.25;5094308;28;20048;-65
2023/06/27 07:11:55;;;;;;;3.08;2.88;;;;;;;33.28;35.55;96323.22;5094137;28;20051;-65
2023/06/27 07:14:23;;;;;;;5.45;2.45;;;;;;;33.46;35.98;96317.16;5094097;28;20048;-65
2023/06/27 07:16:50;;;;;;;5.18;2.47;;;;;;;33.70;35.73;96319.44;5094101;28;20550;-65
2023/06/27 07:19:18;;;;;;;3.47;2.47;;;;;;;33.71;35.29;96318.41;5094005;28;20543;-65
2023/06/27 07:21:46;;;;;;;3.13;2.58;;;;;;;33.74;35.87;96312.56;5094057;28;20055;-65
2023/06/27 07:24:14;;;;;;;2.85;2.55;;;;;;;33.48;34.29;96320.50;5093908;28;20505;-64
2023/06/27 07:26:41;;;;;;;5.50;2.95;;;;;;;33.45;33.66;96318.22;5093778;28;20098;-65
2023/06/27 07:29:08;;;;;;;3.10;2.80;;;;;;;33.41;33.83;96316.97;5093823;28;20048;-65
2023/06/27 07:31:35;;;;;;;5.63;2.63;;;;;;;33.59;33.23;96321.75;5093826;28;20387;-65
2023/06/27 07:34:03;;;;;;;3.15;2.63;;;;;;;33.64;33.57;96313.84;5093753;28;20071;-66
2023/06/27 07:36:30;;;;;;;3.88;2.58;;;;;;;33.88;33.91;96311.50;5093864;28;20117;-66
2023/06/27 07:38:59;;;;;;;3.83;2.90;;;;;;;33.83;32.94;96319.41;5093749;28;20490;-65
2023/06/27 07:41:28;;;;;;;7.82;3.20;;;;;;;33.75;33.83;96312.38;5093661;28;20082;-65
2023/06/27 07:43:56;;;;;;;3.70;2.55;;;;;;;33.54;33.84;96308.00;5093303;28;20498;-65
2023/06/27 07:46:23;;;;;;;3.97;3.08;;;;;;;33.71;33.76;96313.00;5093450;28;20051;-65
2023/06/27 07:48:50;;;;;;;4.70;2.90;;;;;;;33.80;34.28;96313.59;5093517;28;20556;-65
2023/06/27 07:51:17;;;;;;;5.43;3.03;;;;;;;33.68;33.41;96313.41;5093620;28;20040;-65
2023/06/27 07:53:45;;;;;;;6.20;3.15;;;;;;;33.10;34.14;96315.72;5093504;28;20076;-65
2023/06/27 07:56:14;;;;;;;3.45;3.13;;;;;;;32.68;34.52;96313.16;5093558;28;20555;-65
2023/06/27 07:58:42;;;;;;;3.22;2.83;;;;;;;32.94;34.14;96312.34;5093384;28;20058;-65
2023/06/27 08:01:09;;;;;;;4.63;3.00;;;;;;;32.88;32.06;96313.19;5093409;28;20489;-65
2023/06/27 08:03:37;;;;;;;4.22;3.17;;;;;;;32.61;33.24;96313.97;5093410;28;20048;-65
2023/06/27 08:06:05;;;;;;;4.82;2.55;;;;;;;31.63;33.69;96308.50;5093308;28;20048;-65
2023/06/27 08:08:32;;;;;;;7.55;3.00;;;;;;;30.72;36.20;96309.97;5093455;28;20076;-65
2023/06/27 08:10:59;;;;;;;5.32;3.05;;;;;;;30.22;36.77;96308.81;5093430;28;20485;-65
2023/06/27 08:13:28;;;;;;;4.78;2.72;;;;;;;30.16;35.63;96312.31;5093448;28;20056;-65
2023/06/27 08:15:56;;;;;;;3.08;2.75;;;;;;;30.18;36.93;96310.22;5093415;28;20052;-65
2023/06/27 08:18:23;;;;;;;3.75;2.78;;;;;;;29.82;36.70;96303.72;5093146;28;20044;-65
2023/06/27 08:20:50;;;;;;;5.38;2.90;;;;;;;30.11;36.96;96311.97;5093200;28;20040;-64
2023/06/27 08:23:18;;;;;;;3.22;2.90;;;;;;;30.32;36.89;96322.03;5093171;28;20052;-65
2023/06/27 08:25:45;;;;;;;3.25;2.83;;;;;;;30.76;38.83;96314.03;5093015;28;20105;-65
2023/06/27 08:28:12;;;;;;;4.78;3.17;;;;;;;30.79;38.39;96310.09;5093004;28;20044;-65
2023/06/27 08:30:41;;;;;;;4.45;3.25;;;;;;;30.93;37.28;96306.47;5093119;28;20165;-65
2023/06/27 08:33:09;;;;;;;4.32;2.80;;;;;;;30.89;35.24;96314.16;5093382;28;20056;-65
2023/06/27 08:35:37;;;;;;;3.58;2.95;;;;;;;31.06;39.22;96315.75;5093043;28;20044;-65
2023/06/27 08:38:04;;;;;;;4.63;2.50;;;;;;;31.37;36.86;96301.06;5093078;28;20040;-65
2023/06/27 08:40:35;;;;;;;4.13;2.55;;;;;;;31.70;36.32;96303.16;5092962;28;20481;-65
2023/06/27 08:43:03;;;;;;;4.18;3.22;;;;;;;31.84;34.27;96301.34;5092958;28;20549;-65
2023/06/27 08:45:35;;;;;;;2.80;2.60;;;;;;;31.78;33.24;96307.53;5092660;28;20141;-65
2023/06/27 08:48:07;;;;;;;4.07;2.78;;;;;;;31.95;36.36;96310.78;5092982;28;20044;-65
2023/06/27 08:50:39;;;;;;;7.53;2.85;;;;;;;31.74;34.82;96306.25;5093115;28;20048;-65
2023/06/27 08:53:08;;;;;;;3.53;2.45;;;;;;;31.87;33.72;96311.75;5092944;28;20101;-65
2023/06/27 08:55:40;;;;;;;3.33;3.00;;;;;;;31.61;37.26;96305.16;5092865;28;20048;-65
2023/06/27 08:58:12;;;;;;;6.82;2.70;;;;;;;31.69;35.97;96304.16;5092938;28;20040;-65
2023/06/27 09:00:40;;;;;;;3.55;2.83;;;;;;;32.08;35.15;96306.47;5096665;28;20105;-65
2023/06/27 09:03:09;;;;;;;2.95;2.63;;;;;;;32.24;34.04;96308.00;5097000;28;20131;-65
2023/06/27 09:05:37;;;;;;;4.93;3.03;;;;;;;31.86;32.00;96306.53;5096573;28;20473;-65
2023/06/27 09:08:04;;;;;;;5.50;3.00;;;;;;;31.44;34.01;96306.50;5096561;28;20048;-65
2023/06/27 09:10:32;;;;;;;6.72;3.22;;;;;;;30.91;36.52;96310.41;5096506;28;20117;-64
2023/06/27 09:13:00;;;;;;;5.30;2.88;;;;;;;30.51;38.65;96306.25;5096493;28;20043;-65
2023/06/27 09:15:27;;;;;;;3.35;2.85;;;;;;;30.34;37.66;96311.03;5096496;28;20083;-65
2023/06/27 09:17:55;;;;;;;4.63;3.05;;;;;;;30.26;37.70;96301.19;5096405;28;20046;-65
2023/06/27 09:20:25;;;;;;;3.75;2.90;;;;;;;30.09;39.45;96301.38;5096384;28;20044;-64
2023/06/27 09:22:53;;;;;;;4.13;3.13;;;;;;;30.10;40.25;96303.03;5096468;28;20075;-64
2023/06/27 09:25:24;;;;;;;5.50;3.38;;;;;;;30.33;43.51;96302.13;5096777;28;20044;-65
2023/06/27 09:27:52;;;;;;;3.10;2.80;;;;;;;30.47;41.18;96302.25;5096056;28;20048;-65
2023/06/27 09:30:20;;;;;;;3.22;2.85;;;;;;;30.36;38.98;96303.59;5096185;28;20077;-64
2023/06/27 09:32:55;;;;;;;3.53;3.00;;;;;;;30.05;35.64;96294.72;5096178;28;20478;-64
2023/06/27 09:35:25;;;;;;;7.75;3.20;;;;;;;29.84;40.32;96287.38;5096326;28;20082;-64
2023/06/27 09:37:53;;;;;;;4.20;2.90;;;;;;;29.96;40.27;96296.66;5096068;28;20052;-65
2023/06/27 09:40:24;;;;;;;3.38;2.92;;;;;;;30.31;39.16;96295.25;5096028;28;20094;-65
2023/06/27 09:42:53;;;;;;;7.93;2.92;;;;;;;30.44;36.00;96298.09;5095918;28;20051;-65
2023/06/27 09:45:23;;;;;;;5.10;2.80;;;;;;;30.50;38.10;96293.78;5095915;28;20044;-65
2023/06/27 09:47:51;;;;;;;9.07;3.20;;;;;;;30.60;37.01;96290.75;5095799;28;20056;-65
2023/06/27 09:50:18;;;;;;;3.75;2.80;;;;;;;30.69;38.50;96272.59;5095822;28;20055;-65
2023/06/27 09:52:55;;;;;;;7.40;2.90;;;;;;;30.87;38.02;96286.50;5095757;28;20056;-65
2023/06/27 09:55:22;;;;;;;5.18;2.55;;;;;;;31.13;37.57;96279.66;5095724;28;20066;-65
2023/06/27 09:57:50;;;;;;;3.13;2.83;;;;;;;31.21;35.47;96292.16;5095678;28;20087;-65
2023/06/27 10:00:20;;;;;;;3.00;2.65;;;;;;;31.05;36.38;96295.16;5095555;28;20135;-65
2023/06/27 10:02:49;;;;;;;4.25;3.35;;;;;;;30.81;36.59;96292.66;5095479;28;20048;-65
2023/06/27 10:05:16;;;;;;;4.88;2.90;;;;;;;30.34;38.21;96294.88;5095464;28;20054;-65
2023/06/27 10:07:44;;;;;;;5.40;2.67;;;;;;;29.86;38.72;96288.03;5095522;28;20131;-65
2023/06/27 10:10:13;;;;;;;5.70;2.83;;;;;;;29.46;37.68;96283.72;5094343;28;20048;-65
2023/06/27 10:12:41;;;;;;;6.15;3.17;;;;;;;29.07;38.41;96284.78;5095439;28;20048;-65
2023/06/27 10:15:10;;;;;;;3.10;2.72;;;;;;;28.93;38.11;96278.31;5095334;28;20044;-65
2023/06/27 10:17:38;;;;;;;3.83;2.77;;;;;;;29.05;41.48;96274.22;5095397;28;20056;-65
2023/06/27 10:20:11;;;;;;;3.10;2.80;;;;;;;29.19;39.44;96280.63;5095174;28;20052;-65
2023/06/27 10:22:42;;;;;;;3.95;3.00;;;;;;;29.25;40.46;96279.06;5095144;28;20052;-65
2023/06/27 10:25:11;;;;;;;3.45;2.72;;;;;;;29.17;38.43;96281.84;5095172;28;20040;-65
2023/06/27 10:27:42;;;;;;;3.03;2.53;;;;;;;29.23;41.24;96283.81;5095034;28;20159;-65
2023/06/27 10:30:15;;;;;;;5.38;3.08;;;;;;;29.26;37.73;96286.13;5095000;28;20406;-65
2023/06/27 10:32:44;;;;;;;3.78;3.28;;;;;;;29.45;37.03;96283.91;5095280;28;20048;-65
2023/06/27 10:35:13;;;;;;;6.00;2.87;;;;;;;29.44;37.20;96274.16;5094869;28;20040;-65
2023/06/27 10:37:43;;;;;;;5.07;3.00;;;;;;;29.67;40.84;96268.72;5094869;28;20074;-65
2023/06/27 10:40:11;;;;;;;;;;;;;;;29.96;38.84;96267.03;5095313;28;20451;-65
2023/06/27 10:42:38;;;;;;;4.40;2.67;;;;;;;30.12;40.66;96265.97;5094693;28;20335;-65
2023/06/27 10:45:11;;;;;;;4.35;3.10;;;;;;;30.09;39.48;96255.56;5094454;28;20088;-65
2023/06/27 10:47:41;;;;;;;3.17;2.78;;;;;;;30.31;39.02;96263.69;5094643;28;20051;-65
2023/06/27 10:50:12;;;;;;;3.45;2.92;;;;;;;30.51;40.39;96255.84;5094673;28;20094;-65
2023/06/27 10:52:39;;;;;;;;;;;;;;;30.44;35.44;96265.72;5095006;28;20089;-65
2023/06/27 10:55:23;;;;;;;7.60;3.05;;;;;;;30.17;36.67;96260.03;5094593;28;19920;-65
2023/06/27 10:58:04;;;;;;;3.63;2.92;;;;;;;30.50;38.80;96256.88;5094568;28;20052;-65
2023/06/27 11:00:34;;;;;;;4.82;2.63;;;;;;;30.39;39.27;96255.50;5094379;28;20547;-65
2023/06/27 11:03:04;;;;;;;4.28;3.30;;;;;;;30.45;36.98;96258.44;5094278;28;20417;-65
2023/06/27 11:05:40;;;;;;;5.32;2.63;;;;;;;30.62;39.23;96253.66;5094531;28;20075;-65
2023/06/27 11:08:11;;;;;;;7.05;2.90;;;;;;;30.81;37.58;96251.34;5094234;28;20048;-65
2023/06/27 11:10:49;;;;;;;4.03;2.72;;;;;;;31.11;36.92;96253.88;5094408;28;20054;-65
2023/06/27 11:13:17;;;;;;;3.67;3.10;;;;;;;31.18;35.46;96248.53;5094217;28;20147;-65
2023/06/27 11:15:46;;;;;;;5.53;2.65;;;;;;;31.21;37.87;96242.75;5094075;28;20210;-65
2023/06/27 11:18:18;;;;;;;4.10;2.70;;;;;;;31.03;35.18;96241.34;5094061;28;20386;-65
2023/06/27 11:20:47;;;;;;;4.03;2.50;;;;;;;30.89;35.46;96246.66;5094064;28;20047;-65
2023/06/27 11:23:16;;;;;;;3.70;2.58;;;;;;;30.54;34.38;96240.28;5093758;28;20146;-65
2023/06/27 11:25:45;;;;;;;4.05;2.72;;;;;;;30.31;37.50;96233.22;5094112;28;20048;-65
2023/06/27 11:28:13;;;;;;;3.72;2.92;;;;;;;30.37;40.08;96235.16;5093801;28;20070;-65
2023/06/27 11:30:41;;;;;;;3.53;2.70;;;;;;;30.41;38.18;96230.19;5093929;28;20079;-65
2023/06/27 11:33:11;;;;;;;2.85;2.60;;;;;;;30.37;35.68;96233.28;5093944;28;20044;-65
2023/06/27 11:35:40;;;;;;;4.15;2.92;;;;;;;30.27;35.32;96232.75;5093824;28;20089;-65
2023/06/27 11:38:08;;;;;;;5.68;2.95;;;;;;;30.13;35.84;96234.47;5093695;28;20052;-65
2023/06/27 11:40:36;;;;;;;4.25;3.35;;;;;;;30.07;39.32;96229.81;5093877;28;20073;-65